Time;durP1;ratioP1;P1;durP2;ratioP2;P2;SDS_P1;SDS_P2;PMS_P1;PMS_P2;Temp;Humidity;BMP_temperature;BMP_pressure;BME280_temperature;BME280_humidity;BME280_pressure;Samples;Min_cycle;Max_cycle;Signal;HPM_P1;HPM_P2
2022/10/19 00:00:47;;;;;;;11.88;9.55;;;;;;;13.89;100.00;99613.97;4103074;28;20215;-65
2022/10/19 00:02:49;;;;;;;11.60;10.50;;;;;;;13.88;100.00;99621.38;4119989;28;20661;-64
2022/10/19 00:04:50;;;;;;;9.68;8.88;;;;;;;13.92;100.00;99621.72;4103581;28;20217;-65
2022/10/19 00:06:52;;;;;;;10.48;9.48;;;;;;;13.89;100.00;99614.78;4103560;28;20234;-65
2022/10/19 00:08:57;;;;;;;9.88;8.98;;;;;;;13.90;100.00;99616.44;4108241;28;20339;-65
2022/10/19 00:11:00;;;;;;;11.63;10.52;;;;;;;13.88;100.00;99615.88;4106433;28;20603;-65
2022/10/19 00:13:01;;;;;;;14.13;10.63;;;;;;;13.88;100.00;99615.88;4104933;28;20207;-65
2022/10/19 00:15:04;;;;;;;9.45;8.63;;;;;;;13.91;100.00;99620.06;4106049;28;20211;-65
2022/10/19 00:17:05;;;;;;;9.63;8.73;;;;;;;13.93;100.00;99627.00;4119995;28;20823;-65
2022/10/19 00:19:10;;;;;;;11.85;8.05;;;;;;;13.91;100.00;99626.38;4107421;28;20222;-65
2022/10/19 00:21:14;;;;;;;9.10;8.38;;;;;;;13.91;100.00;99628.31;4101979;28;20935;-65
2022/10/19 00:23:16;;;;;;;10.73;7.30;;;;;;;13.92;100.00;99630.81;4105610;28;21344;-65
2022/10/19 00:25:17;;;;;;;8.23;7.60;;;;;;;13.91;100.00;99625.56;4104545;28;20207;-65
2022/10/19 00:27:19;;;;;;;9.60;8.02;;;;;;;13.89;100.00;99625.78;4105928;28;20257;-64
2022/10/19 00:29:20;;;;;;;8.73;7.93;;;;;;;13.84;100.00;99617.44;4105683;28;20210;-65
2022/10/19 00:31:23;;;;;;;9.88;8.57;;;;;;;13.86;100.00;99623.53;4100978;28;20199;-65
2022/10/19 00:33:25;;;;;;;9.70;8.80;;;;;;;13.88;100.00;99623.28;4103990;28;20206;-65
2022/10/19 00:35:26;;;;;;;10.88;8.30;;;;;;;13.90;100.00;99619.19;4103926;28;20226;-65
2022/10/19 00:37:28;;;;;;;10.48;7.20;;;;;;;13.92;100.00;99630.81;4108530;28;20209;-65
2022/10/19 00:39:30;;;;;;;8.25;7.55;;;;;;;13.87;100.00;99619.72;4109845;28;20634;-65
2022/10/19 00:41:33;;;;;;;13.57;7.03;;;;;;;13.85;100.00;99624.63;4107231;28;20206;-65
2022/10/19 00:43:54;;;;;;;7.53;6.88;;;;;;;13.92;100.00;99619.81;4107368;28;20231;-65
2022/10/19 00:45:56;;;;;;;7.25;6.55;;;;;;;13.74;100.00;99610.88;4105833;28;20234;-64
2022/10/19 00:47:57;;;;;;;7.32;6.65;;;;;;;13.82;100.00;99610.50;4107257;28;20210;-64
2022/10/19 00:49:59;;;;;;;7.38;6.55;;;;;;;13.90;100.00;99610.94;4105511;28;20222;-65
2022/10/19 00:52:04;;;;;;;8.32;7.60;;;;;;;13.89;100.00;99603.78;4105614;28;20211;-65
2022/10/19 00:54:06;;;;;;;8.05;7.35;;;;;;;13.88;100.00;99610.38;4101738;28;20216;-65
2022/10/19 00:56:14;;;;;;;7.25;6.60;;;;;;;13.80;100.00;99605.25;4107467;28;20249;-65
2022/10/19 00:58:15;;;;;;;10.20;7.18;;;;;;;13.83;100.00;99602.00;4123113;28;20216;-65
2022/10/19 01:00:17;;;;;;;6.55;6.05;;;;;;;13.86;100.00;99603.44;4103683;28;20211;-64
2022/10/19 01:02:18;;;;;;;7.57;5.88;;;;;;;13.86;100.00;99604.28;4104280;28;20731;-65
2022/10/19 01:04:21;;;;;;;6.55;5.93;;;;;;;13.85;100.00;99602.63;4102652;28;20211;-65
2022/10/19 01:06:23;;;;;;;5.97;5.40;;;;;;;13.87;100.00;99599.59;4104537;28;20249;-64
2022/10/19 01:08:26;;;;;;;9.27;6.57;;;;;;;13.89;100.00;99598.28;4106987;28;20203;-65
2022/10/19 01:10:38;;;;;;;7.65;5.55;;;;;;;13.88;100.00;99596.59;4106426;28;20261;-65
2022/10/19 01:13:05;;;;;;;7.97;7.20;;;;;;;13.87;100.00;99586.69;4107380;28;20293;-65
2022/10/19 01:15:18;;;;;;;7.43;6.78;;;;;;;13.88;100.00;99591.09;4103769;28;20203;-65
2022/10/19 01:17:49;;;;;;;8.25;7.43;;;;;;;13.91;100.00;99590.59;4121561;28;20205;-66
2022/10/19 01:20:24;;;;;;;10.20;9.27;;;;;;;13.90;100.00;99594.44;4103616;28;20627;-65
2022/10/19 01:22:46;;;;;;;9.10;8.38;;;;;;;13.86;100.00;99585.03;4107630;28;20202;-65
2022/10/19 01:25:25;;;;;;;10.25;9.32;;;;;;;13.82;100.00;99594.84;4106841;28;20211;-65
2022/10/19 01:27:31;;;;;;;10.93;10.02;;;;;;;13.81;100.00;99593.16;4106108;28;20266;-66
2022/10/19 01:29:58;;;;;;;10.52;9.65;;;;;;;13.80;100.00;99588.75;4107197;28;20206;-65
2022/10/19 01:32:15;;;;;;;19.45;11.27;;;;;;;13.82;100.00;99592.06;4106435;28;20222;-65
2022/10/19 01:34:46;;;;;;;11.32;9.80;;;;;;;13.83;100.00;99582.75;4121839;28;20748;-65
2022/10/19 01:37:11;;;;;;;10.55;8.85;;;;;;;13.80;100.00;99577.75;4102167;28;20239;-65
2022/10/19 01:39:25;;;;;;;9.20;7.80;;;;;;;13.81;100.00;99578.56;4100999;28;20211;-65
2022/10/19 01:41:30;;;;;;;7.28;6.60;;;;;;;13.81;100.00;99578.56;4106755;28;20210;-65
2022/10/19 01:43:56;;;;;;;11.13;8.43;;;;;;;13.79;100.00;99580.72;4105700;28;21084;-65
2022/10/19 01:46:05;;;;;;;18.65;7.25;;;;;;;13.77;100.00;99583.72;4120100;28;20238;-65
2022/10/19 01:48:12;;;;;;;7.30;6.70;;;;;;;13.74;100.00;99578.72;4121724;28;20205;-65
2022/10/19 01:50:30;;;;;;;11.18;6.55;;;;;;;13.74;100.00;99575.97;4105395;28;20206;-65
2022/10/19 01:52:32;;;;;;;7.65;6.93;;;;;;;13.72;100.00;99572.63;4102127;28;20347;-65
2022/10/19 01:54:38;;;;;;;8.88;8.07;;;;;;;13.73;100.00;99582.56;4102106;28;20265;-65
2022/10/19 01:56:42;;;;;;;7.97;6.45;;;;;;;13.74;100.00;99578.72;4103791;28;20597;-65
2022/10/19 01:58:44;;;;;;;7.50;6.80;;;;;;;13.73;100.00;99577.06;4104325;28;20211;-65
2022/10/19 02:00:47;;;;;;;11.73;6.85;;;;;;;13.74;100.00;99575.97;4121590;28;20202;-65
2022/10/19 02:02:52;;;;;;;12.07;9.75;;;;;;;13.68;100.00;99574.19;4103146;28;20231;-65
2022/10/19 02:04:55;;;;;;;9.32;6.72;;;;;;;13.65;100.00;99571.94;4118902;28;20210;-65
2022/10/19 02:06:57;;;;;;;10.88;6.50;;;;;;;13.65;100.00;99569.19;4103547;28;20679;-65
2022/10/19 02:08:59;;;;;;;8.45;7.65;;;;;;;13.67;100.00;99564.28;4104046;28;20277;-66
2022/10/19 02:11:02;;;;;;;7.50;6.10;;;;;;;13.69;100.00;99570.34;4103687;28;20938;-65
2022/10/19 02:13:04;;;;;;;11.88;7.05;;;;;;;13.64;100.00;99562.00;4102718;28;20284;-65
2022/10/19 02:15:10;;;;;;;7.82;7.13;;;;;;;13.61;100.00;99550.63;4120308;28;20218;-65
2022/10/19 02:17:14;;;;;;;7.10;6.50;;;;;;;13.58;100.00;99557.47;4104344;28;20218;-64
2022/10/19 02:19:17;;;;;;;8.45;7.65;;;;;;;13.65;100.00;99544.44;4090615;28;20203;-64
2022/10/19 02:21:19;;;;;;;9.55;7.32;;;;;;;13.61;100.00;99546.00;4105410;28;20203;-65
2022/10/19 02:23:23;;;;;;;7.30;6.60;;;;;;;13.55;100.00;99535.97;4106061;28;20703;-65
2022/10/19 02:25:25;;;;;;;10.55;8.15;;;;;;;13.49;100.00;99536.94;4104711;28;20210;-65
2022/10/19 02:27:26;;;;;;;9.13;8.32;;;;;;;13.47;100.00;99536.34;4121907;28;20701;-65
2022/10/19 02:29:28;;;;;;;9.15;8.35;;;;;;;13.36;100.00;99526.22;4123204;28;20756;-65
2022/10/19 02:31:29;;;;;;;12.25;9.73;;;;;;;13.34;100.00;99522.88;4089927;28;20207;-65
2022/10/19 02:33:31;;;;;;;81.88;9.77;;;;;;;13.36;100.00;99520.72;4103902;28;20195;-65
2022/10/19 02:35:32;;;;;;;10.60;9.52;;;;;;;13.30;100.00;99518.94;4102670;28;20226;-65
2022/10/19 02:37:34;;;;;;;181.57;14.20;;;;;;;13.11;100.00;99522.91;4102305;28;20245;-65
2022/10/19 02:39:37;;;;;;;52.78;10.95;;;;;;;13.13;100.00;99526.28;4117853;28;20237;-65
2022/10/19 02:42:10;;;;;;;11.30;10.32;;;;;;;13.11;100.00;99517.41;4104423;28;20539;-65
2022/10/19 02:44:21;;;;;;;8.77;7.97;;;;;;;13.11;100.00;99528.41;4104681;28;20687;-65
2022/10/19 02:46:27;;;;;;;8.95;8.15;;;;;;;13.15;100.00;99526.88;4102385;28;20300;-65
2022/10/19 02:48:31;;;;;;;8.50;7.85;;;;;;;13.16;100.00;99531.28;4103285;28;20316;-65
2022/10/19 02:50:32;;;;;;;9.50;7.57;;;;;;;13.24;100.00;99527.31;4102031;28;20203;-65
2022/10/19 02:52:39;;;;;;;8.60;7.85;;;;;;;13.25;100.00;99532.56;4106626;28;20211;-65
2022/10/19 02:54:42;;;;;;;12.48;9.98;;;;;;;13.33;100.00;99531.34;4101427;28;20266;-65
2022/10/19 02:56:44;;;;;;;9.90;9.10;;;;;;;13.31;100.00;99528.84;4119315;28;20233;-65
2022/10/19 02:58:45;;;;;;;10.30;9.32;;;;;;;13.34;100.00;99522.88;4103432;28;20253;-65
2022/10/19 03:00:47;;;;;;;10.07;9.27;;;;;;;13.34;100.00;99528.38;4104225;28;20211;-65
2022/10/19 03:02:49;;;;;;;10.23;9.32;;;;;;;13.40;100.00;99527.41;4101128;28;20326;-65
2022/10/19 03:04:50;;;;;;;19.90;9.85;;;;;;;13.38;100.00;99525.97;4102903;28;20218;-64
2022/10/19 03:06:51;;;;;;;11.45;10.00;;;;;;;13.43;100.00;99524.16;4101987;28;20708;-65
2022/10/19 03:08:53;;;;;;;10.75;9.85;;;;;;;13.35;100.00;99519.03;4107013;28;20612;-65
2022/10/19 03:10:57;;;;;;;12.50;11.38;;;;;;;13.38;100.00;99517.72;4105203;28;20805;-65
2022/10/19 03:12:59;;;;;;;11.43;10.13;;;;;;;13.40;100.00;99515.56;4103553;28;20725;-65
2022/10/19 03:15:01;;;;;;;11.80;10.45;;;;;;;13.44;100.00;99517.56;4101937;28;20207;-65
2022/10/19 03:17:02;;;;;;;13.32;11.77;;;;;;;13.42;100.00;99524.38;4102650;28;20235;-65
2022/10/19 03:19:05;;;;;;;13.05;11.88;;;;;;;13.47;100.00;99516.25;4103787;28;20206;-65
2022/10/19 03:21:09;;;;;;;13.82;12.65;;;;;;;13.44;100.00;99517.56;4104756;28;20622;-65
2022/10/19 03:23:11;;;;;;;12.98;11.88;;;;;;;13.52;100.00;99525.47;4102782;28;20207;-65
2022/10/19 03:25:12;;;;;;;14.70;12.95;;;;;;;13.48;100.00;99518.75;4105587;28;20268;-64
2022/10/19 03:27:14;;;;;;;17.02;15.38;;;;;;;13.37;100.00;99522.38;4103354;28;20265;-65
2022/10/19 03:29:15;;;;;;;15.45;13.85;;;;;;;13.36;100.00;99523.47;4104431;28;20210;-65
2022/10/19 03:31:17;;;;;;;18.20;16.40;;;;;;;13.44;100.00;99519.50;4105792;28;20221;-65
2022/10/19 03:33:19;;;;;;;19.02;16.42;;;;;;;13.29;100.00;99511.75;4089383;28;20217;-65
2022/10/19 03:35:20;;;;;;;20.65;14.73;;;;;;;13.41;100.00;99523.56;4104822;28;20214;-65
2022/10/19 03:37:22;;;;;;;16.23;14.73;;;;;;;13.44;100.00;99523.06;4104515;28;20206;-65
2022/10/19 03:39:24;;;;;;;16.65;15.15;;;;;;;13.45;100.00;99527.53;4106953;28;20261;-65
2022/10/19 03:41:28;;;;;;;16.63;14.95;;;;;;;13.44;100.00;99519.50;4104753;28;20218;-64
2022/10/19 03:43:30;;;;;;;16.40;15.00;;;;;;;13.50;100.00;99527.59;4102501;28;20729;-64
2022/10/19 03:45:31;;;;;;;20.75;16.10;;;;;;;13.46;100.00;99526.44;4103665;28;20238;-64
2022/10/19 03:47:33;;;;;;;19.75;15.88;;;;;;;13.35;100.00;99527.28;4102630;28;20211;-65
2022/10/19 03:49:34;;;;;;;19.90;17.77;;;;;;;13.32;100.00;99530.53;4101937;28;20891;-64
2022/10/19 03:51:40;;;;;;;18.38;16.65;;;;;;;13.35;100.00;99527.28;4102731;28;20257;-65
2022/10/19 03:53:42;;;;;;;19.30;15.68;;;;;;;13.49;100.00;99531.44;4102614;28;20233;-64
2022/10/19 03:55:44;;;;;;;19.52;16.65;;;;;;;13.41;100.00;99525.47;4102731;28;20233;-64
2022/10/19 03:57:45;;;;;;;21.35;14.88;;;;;;;13.39;100.00;99531.25;4103719;28;20218;-64
2022/10/19 03:59:47;;;;;;;19.40;17.52;;;;;;;13.46;100.00;99534.69;4104674;28;20215;-64
2022/10/19 04:01:49;;;;;;;18.52;16.83;;;;;;;13.54;100.00;99537.03;4101357;28;20306;-64
2022/10/19 04:03:55;;;;;;;20.15;17.58;;;;;;;13.49;100.00;99534.19;4099150;28;20666;-64
2022/10/19 04:06:23;;;;;;;31.02;17.55;;;;;;;13.48;100.00;99535.25;4102528;28;20741;-64
2022/10/19 04:08:25;;;;;;;19.30;16.83;;;;;;;13.55;100.00;99540.63;4073620;28;20678;-64
2022/10/19 04:10:26;;;;;;;19.08;17.10;;;;;;;13.53;100.00;99532.63;4103240;28;20207;-64
2022/10/19 04:12:28;;;;;;;21.00;17.67;;;;;;;13.56;100.00;99526.63;4104699;28;20274;-64
2022/10/19 04:14:29;;;;;;;26.85;18.15;;;;;;;13.45;100.00;99530.28;4106340;28;20612;-64
2022/10/19 04:16:39;;;;;;;19.42;17.35;;;;;;;13.46;100.00;99531.09;4120141;28;20225;-64
2022/10/19 04:18:41;;;;;;;23.27;15.05;;;;;;;13.49;100.00;99527.88;4104781;28;20912;-64
2022/10/19 04:20:43;;;;;;;20.20;17.17;;;;;;;13.55;100.00;99524.97;4105957;28;20210;-64
2022/10/19 04:22:44;;;;;;;25.98;17.50;;;;;;;13.56;100.00;99526.63;4107444;28;20214;-64
2022/10/19 04:24:46;;;;;;;20.20;18.13;;;;;;;13.57;100.00;99525.53;4098386;28;20237;-64
2022/10/19 04:26:49;;;;;;;24.35;17.55;;;;;;;13.27;100.00;99522.19;4107596;28;20230;-64
2022/10/19 04:28:51;;;;;;;20.88;18.63;;;;;;;13.16;100.00;99520.28;4105258;28;20210;-64
2022/10/19 04:30:52;;;;;;;19.42;17.05;;;;;;;13.18;100.00;99512.63;4105044;28;20234;-64
2022/10/19 04:32:54;;;;;;;19.98;18.00;;;;;;;13.28;100.00;99514.75;4103614;28;20207;-64
2022/10/19 04:34:55;;;;;;;23.95;18.40;;;;;;;13.16;100.00;99509.28;4106695;28;20207;-64
2022/10/19 04:36:58;;;;;;;32.70;19.33;;;;;;;13.04;100.00;99505.72;4107500;28;20607;-64
2022/10/19 04:39:00;;;;;;;19.75;17.58;;;;;;;13.14;100.00;99497.72;4107590;28;20218;-64
2022/10/19 04:41:03;;;;;;;21.45;18.88;;;;;;;13.19;100.00;99503.31;4105111;28;20210;-64
2022/10/19 04:43:05;;;;;;;21.10;18.67;;;;;;;13.22;100.00;99497.31;4105180;28;20218;-64
2022/10/19 04:45:07;;;;;;;27.50;17.98;;;;;;;13.28;100.00;99503.75;4105286;28;20235;-65
2022/10/19 04:47:08;;;;;;;21.52;17.65;;;;;;;13.34;100.00;99505.53;4104262;28;21225;-64
2022/10/19 04:49:10;;;;;;;21.75;19.15;;;;;;;13.37;100.00;99508.63;4104448;28;20210;-64
2022/10/19 04:51:18;;;;;;;18.52;16.73;;;;;;;13.38;100.00;99518.53;4105060;28;20198;-65
2022/10/19 04:53:20;;;;;;;18.73;16.98;;;;;;;13.40;100.00;99510.91;4102072;28;20658;-64
2022/10/19 04:55:22;;;;;;;21.65;17.75;;;;;;;13.42;100.00;99514.25;4087685;28;20738;-64
2022/10/19 04:57:23;;;;;;;19.00;17.02;;;;;;;13.44;100.00;99516.75;4105103;28;20211;-64
2022/10/19 04:59:25;;;;;;;17.35;15.63;;;;;;;13.47;100.00;99510.75;4104216;28;20655;-65
2022/10/19 05:01:28;;;;;;;18.10;16.25;;;;;;;13.53;100.00;99516.13;4108039;28;20734;-65
2022/10/19 05:03:30;;;;;;;18.17;16.30;;;;;;;13.52;100.00;99506.22;4088105;28;20230;-65
2022/10/19 05:05:32;;;;;;;27.00;18.73;;;;;;;13.62;100.00;99503.66;4105926;28;20849;-64
2022/10/19 05:07:33;;;;;;;19.50;17.48;;;;;;;13.55;100.00;99508.47;4106043;28;20211;-64
2022/10/19 05:09:36;;;;;;;23.58;17.35;;;;;;;13.55;100.00;99500.22;4106443;28;20215;-64
2022/10/19 05:11:37;;;;;;;23.20;20.73;;;;;;;13.60;100.00;99504.97;4106041;28;20207;-64
2022/10/19 05:13:39;;;;;;;22.17;19.58;;;;;;;13.46;100.00;99509.94;4106191;28;20211;-64
2022/10/19 05:15:41;;;;;;;25.25;18.98;;;;;;;13.44;100.00;99501.06;4107233;28;20237;-64
2022/10/19 05:17:43;;;;;;;23.80;18.98;;;;;;;13.41;100.00;99501.56;4103644;28;20211;-64
2022/10/19 05:19:44;;;;;;;23.77;21.27;;;;;;;13.43;100.00;99501.34;4105362;28;20213;-64
2022/10/19 05:21:46;;;;;;;35.30;20.02;;;;;;;13.44;100.00;99501.06;4106345;28;20219;-64
2022/10/19 05:23:51;;;;;;;22.05;19.73;;;;;;;13.45;100.00;99497.28;4107532;28;20712;-64
2022/10/19 05:26:11;;;;;;;37.55;20.80;;;;;;;13.43;100.00;99493.09;4108459;28;20729;-64
2022/10/19 05:28:13;;;;;;;22.70;19.02;;;;;;;13.45;100.00;99497.28;4104616;28;20562;-64
2022/10/19 05:30:14;;;;;;;21.75;18.95;;;;;;;13.54;100.00;99484.78;4086254;28;20250;-64
2022/10/19 05:32:16;;;;;;;21.65;19.35;;;;;;;13.55;100.00;99486.47;4122443;28;20206;-64
2022/10/19 05:34:18;;;;;;;23.27;20.98;;;;;;;13.46;100.00;99493.44;4106388;28;20262;-64
2022/10/19 05:36:28;;;;;;;27.75;21.27;;;;;;;13.53;100.00;99494.13;4107915;28;20229;-64
2022/10/19 05:38:29;;;;;;;21.23;19.13;;;;;;;13.47;100.00;99492.34;4105369;28;20425;-64
2022/10/19 05:40:31;;;;;;;27.15;21.02;;;;;;;13.45;100.00;99486.28;4104738;28;20226;-64
2022/10/19 05:42:32;;;;;;;31.55;21.65;;;;;;;13.49;100.00;99492.94;4105358;28;20281;-65
2022/10/19 05:44:34;;;;;;;26.67;20.77;;;;;;;13.45;100.00;99490.94;4107144;28;20227;-64
2022/10/19 05:46:36;;;;;;;22.80;20.50;;;;;;;13.42;100.00;99492.25;4100654;28;20289;-65
2022/10/19 05:48:38;;;;;;;31.20;21.33;;;;;;;13.30;100.00;99490.63;4097345;28;20218;-65
2022/10/19 05:50:40;;;;;;;26.27;21.42;;;;;;;13.33;100.00;99485.47;4115602;28;20215;-65
2022/10/19 05:52:41;;;;;;;24.48;21.52;;;;;;;13.39;100.00;99478.16;4100047;28;20206;-65
2022/10/19 05:54:43;;;;;;;35.28;22.13;;;;;;;13.47;100.00;99481.34;4104005;28;20214;-65
2022/10/19 05:56:45;;;;;;;27.40;22.05;;;;;;;13.50;100.00;99488.28;4105614;28;20293;-64
2022/10/19 05:58:48;;;;;;;22.02;19.75;;;;;;;13.56;100.00;99479.88;4104621;28;20582;-65
2022/10/19 06:00:54;;;;;;;29.80;22.33;;;;;;;13.54;100.00;99482.03;4102809;28;20217;-64
2022/10/19 06:02:55;;;;;;;28.67;21.85;;;;;;;13.55;100.00;99474.59;4103069;28;20257;-64
2022/10/19 06:04:59;;;;;;;35.53;22.90;;;;;;;13.38;100.00;99470.97;4106368;28;20273;-65
2022/10/19 06:07:01;;;;;;;37.92;24.15;;;;;;;13.32;100.00;99470.06;4103956;28;20290;-65
2022/10/19 06:09:03;;;;;;;34.20;24.08;;;;;;;13.24;100.00;99470.41;4105449;28;20214;-65
2022/10/19 06:11:10;;;;;;;30.25;22.90;;;;;;;13.31;100.00;99473.03;4103353;28;20206;-65
2022/10/19 06:13:12;;;;;;;33.47;22.58;;;;;;;13.30;100.00;99469.44;4102459;28;20206;-65
2022/10/19 06:15:14;;;;;;;34.95;24.98;;;;;;;13.39;100.00;99476.25;4105273;28;20199;-64
2022/10/19 06:17:16;;;;;;;35.22;24.08;;;;;;;13.32;100.00;99474.72;4107200;28;20288;-64
2022/10/19 06:19:17;;;;;;;42.28;24.90;;;;;;;13.31;100.00;99468.38;4108480;28;20216;-64
2022/10/19 06:21:21;;;;;;;36.75;24.77;;;;;;;13.24;100.00;99473.16;4090925;28;20747;-65
2022/10/19 06:23:23;;;;;;;32.30;23.83;;;;;;;13.20;100.00;99472.00;4107800;28;20317;-64
2022/10/19 06:25:29;;;;;;;38.88;23.58;;;;;;;13.29;100.00;99465.03;4107095;28;20222;-65
2022/10/19 06:27:32;;;;;;;46.28;26.67;;;;;;;13.18;100.00;99474.13;4103831;28;20231;-65
2022/10/19 06:29:34;;;;;;;31.77;22.90;;;;;;;13.26;100.00;99476.53;4105158;28;20674;-64
2022/10/19 06:31:37;;;;;;;34.30;23.02;;;;;;;13.20;100.00;99483.00;4107600;28;20206;-66
2022/10/19 06:33:39;;;;;;;37.65;23.13;;;;;;;13.21;100.00;99484.66;4106368;28;20211;-65
2022/10/19 06:35:43;;;;;;;28.00;23.17;;;;;;;13.22;100.00;99479.97;4108046;28;20238;-65
2022/10/19 06:37:45;;;;;;;29.42;22.98;;;;;;;13.13;100.00;99474.06;4109458;28;20214;-65
2022/10/19 06:39:46;;;;;;;34.03;23.90;;;;;;;13.06;100.00;99476.09;4107116;28;20632;-65
2022/10/19 06:41:48;;;;;;;37.97;23.92;;;;;;;13.16;100.00;99476.31;4108070;28;20270;-65
2022/10/19 06:43:51;;;;;;;36.70;21.38;;;;;;;13.21;100.00;99479.16;4106469;28;20203;-64
2022/10/19 06:45:52;;;;;;;30.00;21.02;;;;;;;13.27;100.00;99483.69;4104285;28;20234;-64
2022/10/19 06:47:54;;;;;;;30.20;21.67;;;;;;;13.32;100.00;99485.72;4106920;28;20210;-64
2022/10/19 06:49:56;;;;;;;27.73;22.25;;;;;;;13.32;100.00;99499.44;4106554;28;20818;-64
2022/10/19 06:51:57;;;;;;;27.00;19.08;;;;;;;13.30;100.00;99499.69;4103362;28;20690;-64
2022/10/19 06:53:59;;;;;;;27.85;15.95;;;;;;;13.04;100.00;99500.22;4103143;28;20226;-64
2022/10/19 06:56:04;;;;;;;19.45;17.20;;;;;;;13.14;100.00;99497.72;4106869;28;20234;-64
2022/10/19 06:58:05;;;;;;;27.50;15.95;;;;;;;13.16;100.00;99501.03;4107826;28;20207;-65
2022/10/19 07:00:07;;;;;;;24.35;16.50;;;;;;;13.23;100.00;99504.50;4108275;28;20218;-65
2022/10/19 07:02:12;;;;;;;17.85;13.68;;;;;;;13.32;100.00;99500.31;4103138;28;20206;-64
2022/10/19 07:04:13;;;;;;;22.13;14.95;;;;;;;13.21;100.00;99503.91;4104945;28;20207;-64
2022/10/19 07:06:15;;;;;;;31.02;17.13;;;;;;;13.19;100.00;99508.81;4107339;28;20231;-65
2022/10/19 07:08:16;;;;;;;34.20;16.45;;;;;;;13.20;100.00;99494.00;4107473;28;20238;-64
2022/10/19 07:10:18;;;;;;;20.20;16.70;;;;;;;13.16;100.00;99509.28;4105483;28;20222;-66
2022/10/19 07:12:19;;;;;;;58.03;18.60;;;;;;;13.15;100.00;99495.78;4106479;28;20211;-65
2022/10/19 07:14:23;;;;;;;53.95;18.55;;;;;;;13.00;100.00;99493.56;4107483;28;20291;-65
2022/10/19 07:16:25;;;;;;;49.35;19.65;;;;;;;13.01;100.00;99497.13;4105497;28;20226;-65
2022/10/19 07:18:26;;;;;;;30.25;18.85;;;;;;;13.09;100.00;99485.78;4105101;28;20281;-65
2022/10/19 07:20:28;;;;;;;27.10;18.50;;;;;;;13.08;100.00;99493.19;4105623;28;20822;-65
2022/10/19 07:22:29;;;;;;;30.08;17.35;;;;;;;13.13;100.00;99487.81;4087515;28;20219;-64
2022/10/19 07:24:31;;;;;;;34.55;18.83;;;;;;;13.13;100.00;99498.78;4101052;28;20230;-64
2022/10/19 07:26:33;;;;;;;26.42;16.90;;;;;;;13.18;100.00;99501.63;4100708;28;20262;-65
2022/10/19 07:28:34;;;;;;;43.40;20.25;;;;;;;13.12;100.00;99499.03;4084560;28;20207;-65
2022/10/19 07:30:37;;;;;;;44.22;19.77;;;;;;;13.14;100.00;99497.72;4103934;28;20880;-65
2022/10/19 07:32:39;;;;;;;41.65;20.15;;;;;;;13.06;100.00;99495.34;4104888;28;20211;-65
2022/10/19 07:34:47;;;;;;;36.58;20.13;;;;;;;13.13;100.00;99503.44;4104092;28;20578;-65
2022/10/19 07:36:48;;;;;;;34.40;19.13;;;;;;;13.22;100.00;99505.56;4091057;28;20227;-65
2022/10/19 07:38:50;;;;;;;26.90;18.63;;;;;;;13.21;100.00;99506.66;4108343;28;20215;-64
2022/10/19 07:41:01;;;;;;;29.80;17.88;;;;;;;13.23;100.00;99504.50;4106560;28;20207;-65
2022/10/19 07:43:03;;;;;;;32.50;19.15;;;;;;;13.25;100.00;99507.00;4108870;28;20254;-65
2022/10/19 07:45:05;;;;;;;31.90;18.10;;;;;;;13.23;100.00;99499.00;4105504;28;22483;-65
2022/10/19 07:47:06;;;;;;;25.65;17.15;;;;;;;13.25;100.00;99496.81;4102433;28;20242;-64
2022/10/19 07:49:12;;;;;;;31.80;17.55;;;;;;;13.34;100.00;99495.38;4108871;28;20221;-65
2022/10/19 07:51:15;;;;;;;27.83;17.30;;;;;;;13.35;100.00;99497.03;4106052;28;20214;-65
2022/10/19 07:53:16;;;;;;;22.20;15.95;;;;;;;13.32;100.00;99496.69;4104335;28;20210;-65
2022/10/19 07:55:18;;;;;;;22.73;15.55;;;;;;;13.42;100.00;99503.25;4090715;28;20199;-65
2022/10/19 07:57:21;;;;;;;26.23;16.80;;;;;;;13.35;100.00;99502.53;4109065;28;20277;-65
2022/10/19 07:59:22;;;;;;;25.88;17.67;;;;;;;13.44;100.00;99495.56;4107978;28;20210;-64
2022/10/19 08:01:28;;;;;;;22.88;16.27;;;;;;;13.47;100.00;99505.25;4104223;28;20245;-64
2022/10/19 08:03:30;;;;;;;26.95;17.05;;;;;;;13.43;100.00;99504.09;4101683;28;20234;-65
2022/10/19 08:05:51;;;;;;;31.05;17.65;;;;;;;13.50;100.00;99508.34;4101803;28;20287;-65
2022/10/19 08:07:53;;;;;;;28.83;17.20;;;;;;;13.54;100.00;99501.28;4105814;28;20515;-65
2022/10/19 08:09:54;;;;;;;20.73;16.80;;;;;;;13.61;100.00;99501.97;4105246;28;20218;-65
2022/10/19 08:11:56;;;;;;;27.98;16.50;;;;;;;13.66;100.00;99504.84;4106050;28;20246;-64
2022/10/19 08:13:58;;;;;;;24.50;15.40;;;;;;;13.66;100.00;99509.50;4107278;28;20206;-64
2022/10/19 08:16:00;;;;;;;19.60;16.23;;;;;;;13.60;100.00;99507.72;4110635;28;20232;-65
2022/10/19 08:18:01;;;;;;;23.48;17.80;;;;;;;13.71;100.00;99502.16;4110047;28;20217;-65
2022/10/19 08:20:04;;;;;;;25.42;17.95;;;;;;;13.78;100.00;99507.53;4107199;28;20212;-65
2022/10/19 08:22:06;;;;;;;19.27;16.33;;;;;;;13.86;100.00;99499.72;4107202;28;20766;-65
2022/10/19 08:24:08;;;;;;;21.05;14.23;;;;;;;13.74;100.00;99500.84;4089706;28;20211;-65
2022/10/19 08:26:09;;;;;;;17.48;15.32;;;;;;;13.71;100.00;99507.66;4102172;28;20256;-65
2022/10/19 08:28:11;;;;;;;17.52;13.82;;;;;;;13.81;100.00;99502.38;4102002;28;20705;-65
2022/10/19 08:30:12;;;;;;;17.85;15.88;;;;;;;13.75;100.00;99503.34;4083539;28;20250;-65
2022/10/19 08:32:14;;;;;;;18.20;15.23;;;;;;;13.78;100.00;99505.59;4100270;28;20207;-64
2022/10/19 08:34:15;;;;;;;16.52;14.55;;;;;;;13.80;100.00;99511.72;4102142;28;20601;-64
2022/10/19 08:36:18;;;;;;;14.05;12.73;;;;;;;13.74;100.00;99509.09;4101861;28;20226;-64
2022/10/19 08:38:20;;;;;;;15.30;13.70;;;;;;;13.71;100.00;99513.16;4099724;28;20667;-65
2022/10/19 08:40:27;;;;;;;16.60;13.95;;;;;;;13.75;100.00;99506.09;4099016;28;20242;-64
2022/10/19 08:42:41;;;;;;;17.80;14.18;;;;;;;13.77;100.00;99506.69;4097696;28;20266;-65
2022/10/19 08:44:48;;;;;;;16.13;14.48;;;;;;;13.80;100.00;99508.97;4081518;28;20346;-65
2022/10/19 08:46:53;;;;;;;15.43;13.93;;;;;;;13.92;100.00;99504.25;4101635;28;20244;-65
2022/10/19 08:48:55;;;;;;;17.88;11.25;;;;;;;13.77;100.00;99505.88;4097091;28;20273;-64
2022/10/19 08:50:58;;;;;;;14.38;12.77;;;;;;;13.67;100.00;99509.25;4097257;28;21446;-65
2022/10/19 08:53:02;;;;;;;15.60;14.10;;;;;;;13.73;100.00;99505.53;4097115;28;20726;-65
2022/10/19 08:55:10;;;;;;;14.95;13.55;;;;;;;13.75;100.00;99503.34;4114981;28;20207;-65
2022/10/19 08:57:31;;;;;;;13.98;12.68;;;;;;;13.87;100.00;99495.88;4099574;28;20207;-65
2022/10/19 08:59:45;;;;;;;15.15;13.50;;;;;;;13.75;100.00;99492.34;4120833;28;20197;-65
2022/10/19 09:01:54;;;;;;;15.82;14.18;;;;;;;13.72;100.00;99486.50;4107720;28;20214;-65
2022/10/19 09:04:05;;;;;;;16.25;14.00;;;;;;;13.60;100.00;99494.81;4100963;28;21077;-65
2022/10/19 09:06:40;;;;;;;18.88;14.15;;;;;;;13.60;100.00;99494.81;4104303;28;20696;-65
2022/10/19 09:08:42;;;;;;;16.42;14.73;;;;;;;13.56;100.00;99488.13;4125073;28;20225;-65
2022/10/19 09:10:46;;;;;;;30.55;15.98;;;;;;;13.60;100.00;99483.81;4108768;28;20238;-65
2022/10/19 09:12:59;;;;;;;27.40;18.05;;;;;;;13.57;100.00;99489.78;4108372;28;20218;-65
2022/10/19 09:15:15;;;;;;;30.77;17.38;;;;;;;13.63;100.00;99483.31;4109497;28;20210;-66
2022/10/19 09:17:16;;;;;;;22.73;15.95;;;;;;;13.69;100.00;99476.00;4122931;28;20225;-65
2022/10/19 09:19:24;;;;;;;28.88;17.30;;;;;;;13.77;100.00;99472.84;4101729;28;20249;-65
2022/10/19 09:21:33;;;;;;;21.30;16.38;;;;;;;13.79;100.00;99470.69;4105675;28;20281;-66
2022/10/19 09:24:04;;;;;;;25.98;18.05;;;;;;;13.80;100.00;99466.84;4106450;28;20211;-66
2022/10/19 09:26:16;;;;;;;29.73;16.42;;;;;;;13.78;100.00;99469.00;4100825;28;21158;-65
2022/10/19 09:28:23;;;;;;;24.95;16.40;;;;;;;13.88;100.00;99464.53;4108272;28;20206;-65